Time;durP1;ratioP1;P1;durP2;ratioP2;P2;SDS_P1;SDS_P2;PMS_P1;PMS_P2;Temp;Humidity;BMP_temperature;BMP_pressure;BME280_temperature;BME280_humidity;BME280_pressure;Samples;Min_cycle;Max_cycle;Signal;HPM_P1;HPM_P2
2022/12/05 00:01:54;;;;;;;;;;;8.00;95.70;;;;;;5115731;28;19976;-89
2022/12/05 00:04:19;;;;;;;;;;;7.90;95.60;;;;;;5115692;28;19980;-89
2022/12/05 00:06:45;;;;;;;;;;;7.80;95.40;;;;;;5115637;28;20352;-89
2022/12/05 00:09:11;;;;;;;;;;;7.80;95.30;;;;;;5115536;28;19940;-89
2022/12/05 00:11:38;;;;;;;;;;;7.70;95.50;;;;;;5115473;28;19942;-89
2022/12/05 00:14:04;;;;;;;;;;;7.80;95.40;;;;;;5115721;28;19940;-89
2022/12/05 00:16:31;;;;;;;;;;;7.70;95.30;;;;;;5115454;28;19957;-90
2022/12/05 00:19:00;;;;;;;;;;;7.70;95.20;;;;;;5115575;28;19958;-89
2022/12/05 00:21:27;;;;;;;;;;;7.70;95.20;;;;;;5115351;28;19971;-89
2022/12/05 00:23:53;;;;;;;;;;;7.80;95.20;;;;;;5115167;28;19978;-89
2022/12/05 00:26:19;;;;;;;;;;;7.80;95.10;;;;;;5115472;28;19942;-90
2022/12/05 00:28:44;;;;;;;;;;;7.80;95.10;;;;;;5115173;28;20329;-89
2022/12/05 00:31:11;;;;;;;;;;;7.80;95.10;;;;;;5115122;28;19995;-89
2022/12/05 00:33:37;;;;;;;;;;;7.90;95.20;;;;;;5115395;28;20045;-90
2022/12/05 00:36:03;;;;;;;;;;;7.90;95.30;;;;;;5115092;28;20404;-89
2022/12/05 00:38:29;;;;;;;;;;;8.00;95.50;;;;;;5115145;28;20059;-89
2022/12/05 00:40:54;;;;;;;;;;;8.00;95.50;;;;;;5114998;28;20032;-89
2022/12/05 00:43:20;;;;;;;;;;;8.00;95.60;;;;;;5114937;28;19950;-89
2022/12/05 00:45:45;;;;;;;;;;;8.00;95.60;;;;;;5114866;28;19948;-90
2022/12/05 00:48:11;;;;;;;;;;;8.00;95.80;;;;;;5114823;28;19954;-89
2022/12/05 00:50:36;;;;;;;;;;;8.10;95.90;;;;;;5114770;28;19980;-90
2022/12/05 00:53:02;;;;;;;;;;;8.10;95.90;;;;;;5114129;28;19952;-89
2022/12/05 00:55:27;;;;;;;;;;;8.10;95.90;;;;;;5114584;28;19937;-90
2022/12/05 00:57:53;;;;;;;;;;;8.00;95.80;;;;;;5114544;28;20404;-90
2022/12/05 01:00:19;;;;;;;;;;;8.10;96.20;;;;;;5114549;28;19944;-89
2022/12/05 01:02:44;;;;;;;;;;;8.10;96.20;;;;;;5114526;28;19936;-89
2022/12/05 01:05:10;;;;;;;;;;;8.30;96.20;;;;;;5114460;28;19940;-89
2022/12/05 01:07:35;;;;;;;;;;;8.50;96.00;;;;;;5096157;28;19974;-89
2022/12/05 01:10:01;;;;;;;;;;;8.70;95.80;;;;;;5114367;28;20050;-89
2022/12/05 01:12:27;;;;;;;;;;;8.80;95.50;;;;;;5114314;28;19938;-89
2022/12/05 01:14:52;;;;;;;;;;;8.90;94.90;;;;;;5114565;28;19955;-89
2022/12/05 01:17:18;;;;;;;;;;;8.90;94.40;;;;;;5114190;28;20068;-90
2022/12/05 01:19:43;;;;;;;;;;;8.90;94.00;;;;;;5114190;28;19940;-89
2022/12/05 01:22:09;;;;;;;;;;;8.60;94.10;;;;;;5114139;28;19938;-89
2022/12/05 01:24:34;;;;;;;;;;;8.40;95.00;;;;;;5113988;28;19985;-90
2022/12/05 01:27:00;;;;;;;;;;;8.40;95.40;;;;;;5114115;28;20313;-90
2022/12/05 01:29:26;;;;;;;;;;;8.60;95.30;;;;;;5114059;28;19940;-90
2022/12/05 01:31:51;;;;;;;;;;;8.60;95.20;;;;;;5114001;28;19948;-90
2022/12/05 01:34:17;;;;;;;;;;;8.60;95.10;;;;;;5113914;28;20023;-90
2022/12/05 01:36:43;;;;;;;;;;;8.60;95.10;;;;;;5113944;28;19940;-90
2022/12/05 01:39:09;;;;;;;;;;;8.50;95.30;;;;;;5113776;28;20032;-90
2022/12/05 01:41:37;;;;;;;;;;;8.40;95.40;;;;;;5113856;28;20001;-89
2022/12/05 01:44:07;;;;;;;;;;;8.50;95.40;;;;;;5113840;28;19937;-90
2022/12/05 01:46:33;;;;;;;;;;;8.50;95.50;;;;;;5113830;28;19936;-89
2022/12/05 01:49:02;;;;;;;;;;;8.60;95.40;;;;;;5113738;28;19943;-89
2022/12/05 01:51:29;;;;;;;;;;;8.50;95.30;;;;;;5113964;28;19946;-89
2022/12/05 01:53:55;;;;;;;;;;;8.40;95.40;;;;;;5095423;28;19955;-89
2022/12/05 01:56:20;;;;;;;;;;;8.40;95.60;;;;;;5113697;28;19975;-90
2022/12/05 01:58:46;;;;;;;;;;;8.40;95.70;;;;;;5113534;28;19948;-90
2022/12/05 02:01:14;;;;;;;;;;;8.40;95.80;;;;;;5113514;28;19938;-89
2022/12/05 02:03:40;;;;;;;;;;;8.70;95.80;;;;;;5113494;28;20419;-90
2022/12/05 02:06:06;;;;;;;;;;;8.60;95.80;;;;;;5113054;28;20036;-89
2022/12/05 02:08:31;;;;;;;;;;;8.50;96.00;;;;;;5113504;28;19935;-89
2022/12/05 02:10:57;;;;;;;;;;;8.50;96.20;;;;;;5113474;28;19945;-90
2022/12/05 02:13:32;;;;;;;;;;;8.60;96.20;;;;;;5113551;28;20200;-89
2022/12/05 02:16:08;;;;;;;;;;;8.70;96.00;;;;;;5113480;28;20307;-90
2022/12/05 02:18:46;;;;;;;;;;;8.80;95.90;;;;;;5113389;28;19964;-89
2022/12/05 02:21:26;;;;;;;;;;;8.90;95.80;;;;;;5113619;28;19961;-90
2022/12/05 02:24:03;;;;;;;;;;;8.90;95.80;;;;;;5113283;28;20017;-90
2022/12/05 02:26:29;;;;;;;;;;;9.00;95.70;;;;;;5113440;28;19947;-90
2022/12/05 02:28:57;;;;;;;;;;;9.00;95.60;;;;;;5113381;28;20176;-90
2022/12/05 02:31:43;;;;;;;;;;;9.00;95.50;;;;;;5113362;28;19939;-90
2022/12/05 02:34:18;;;;;;;;;;;9.10;95.50;;;;;;5112624;28;19941;-90
2022/12/05 02:36:48;;;;;;;;;;;9.10;95.40;;;;;;5113278;28;19943;-90
2022/12/05 02:39:21;;;;;;;;;;;9.10;95.30;;;;;;5113282;28;19944;-90
2022/12/05 02:41:47;;;;;;;;;;;9.20;95.40;;;;;;5113266;28;20386;-89
2022/12/05 02:44:12;;;;;;;;;;;9.30;95.40;;;;;;5113230;28;19982;-90
2022/12/05 02:46:39;;;;;;;;;;;9.50;95.20;;;;;;5113222;28;19947;-90
2022/12/05 02:49:09;;;;;;;;;;;9.60;95.00;;;;;;5113448;28;19940;-89
2022/12/05 02:51:38;;;;;;;;;;;9.70;94.20;;;;;;5113447;28;20031;-90
2022/12/05 02:54:05;;;;;;;;;;;9.60;93.20;;;;;;5094798;28;19945;-89
2022/12/05 02:56:32;;;;;;;;;;;9.60;93.20;;;;;;5113064;28;20034;-89
2022/12/05 02:58:58;;;;;;;;;;;9.50;93.10;;;;;;5112961;28;20005;-89
2022/12/05 03:01:26;;;;;;;;;;;9.60;93.30;;;;;;5113080;28;19945;-89
2022/12/05 03:03:52;;;;;;;;;;;9.50;93.40;;;;;;5113305;28;19942;-89
2022/12/05 03:06:21;;;;;;;;;;;9.40;93.60;;;;;;5094774;28;20034;-90
2022/12/05 03:08:49;;;;;;;;;;;9.40;93.70;;;;;;5112972;28;19943;-89
2022/12/05 03:11:15;;;;;;;;;;;9.30;94.00;;;;;;5113001;28;20357;-90
2022/12/05 03:13:44;;;;;;;;;;;9.30;94.30;;;;;;5112979;28;19941;-89
2022/12/05 03:16:17;;;;;;;;;;;9.30;94.30;;;;;;5114030;28;20018;-90
2022/12/05 03:18:46;;;;;;;;;;;9.40;94.30;;;;;;5116826;28;19964;-89
2022/12/05 03:21:20;;;;;;;;;;;9.60;94.20;;;;;;5116487;28;20029;-90
2022/12/05 03:23:49;;;;;;;;;;;9.60;94.00;;;;;;5116347;28;20070;-90
2022/12/05 03:26:19;;;;;;;;;;;9.70;93.90;;;;;;5116421;28;19963;-90
2022/12/05 03:29:05;;;;;;;;;;;9.70;93.80;;;;;;5116431;28;19937;-90
2022/12/05 03:31:38;;;;;;;;;;;9.80;93.90;;;;;;5114548;28;20029;-90
2022/12/05 03:34:06;;;;;;;;;;;9.90;93.40;;;;;;5116323;28;19941;-89
2022/12/05 03:36:35;;;;;;;;;;;9.80;93.20;;;;;;5116239;28;20387;-89
2022/12/05 03:39:04;;;;;;;;;;;9.60;93.50;;;;;;5097871;28;20022;-89
2022/12/05 03:41:56;;;;;;;;;;;9.40;93.90;;;;;;5116127;28;20045;-89
2022/12/05 03:44:30;;;;;;;;;;;9.50;94.40;;;;;;5110926;28;19940;-89
2022/12/05 03:47:02;;;;;;;;;;;9.50;94.40;;;;;;5116033;28;19941;-89
2022/12/05 03:49:28;;;;;;;;;;;9.40;94.30;;;;;;5115992;28;19939;-89
2022/12/05 03:52:12;;;;;;;;;;;9.30;94.50;;;;;;5115870;28;19936;-89
2022/12/05 03:54:44;;;;;;;;;;;9.30;94.60;;;;;;5115744;28;19943;-89
2022/12/05 03:57:12;;;;;;;;;;;9.30;94.80;;;;;;5115767;28;19944;-89
2022/12/05 03:59:50;;;;;;;;;;;9.60;94.90;;;;;;5115766;28;19936;-89
2022/12/05 04:02:18;;;;;;;;;;;9.80;94.50;;;;;;5115743;28;20114;-89
2022/12/05 04:04:53;;;;;;;;;;;9.80;94.20;;;;;;5115908;28;19947;-89
2022/12/05 04:07:19;;;;;;;;;;;9.80;94.10;;;;;;5115640;28;19940;-89
2022/12/05 04:09:49;;;;;;;;;;;9.50;94.30;;;;;;5115609;28;19986;-89
2022/12/05 04:12:18;;;;;;;;;;;9.40;94.80;;;;;;5115537;28;20392;-90
2022/12/05 04:14:49;;;;;;;;;;;9.40;94.70;;;;;;5115447;28;19985;-90
2022/12/05 04:17:25;;;;;;;;;;;9.50;94.60;;;;;;5115432;28;20012;-90
2022/12/05 04:22:41;;;;;;;;;;;9.40;94.90;;;;;;5115662;28;20010;-90
2022/12/05 04:27:52;;;;;;;;;;;9.70;94.90;;;;;;5113688;28;20037;-90
2022/12/05 04:30:19;;;;;;;;;;;9.90;94.90;;;;;;5114597;28;19977;-90
2022/12/05 04:32:51;;;;;;;;;;;10.10;94.70;;;;;;5114287;28;20312;-90
2022/12/05 04:35:19;;;;;;;;;;;10.20;94.30;;;;;;5113864;28;19949;-90
2022/12/05 04:37:47;;;;;;;;;;;10.20;94.00;;;;;;5112045;28;20418;-90
2022/12/05 04:40:21;;;;;;;;;;;10.10;93.90;;;;;;5110169;28;20045;-90
2022/12/05 04:42:49;;;;;;;;;;;10.00;93.80;;;;;;5107006;28;19967;-89
2022/12/05 04:45:16;;;;;;;;;;;9.90;93.70;;;;;;5114361;28;20284;-90
2022/12/05 04:47:43;;;;;;;;;;;9.90;93.80;;;;;;5114722;28;20016;-90
2022/12/05 04:50:11;;;;;;;;;;;9.80;93.80;;;;;;5114709;28;20339;-89
2022/12/05 04:52:38;;;;;;;;;;;9.80;93.90;;;;;;5114810;28;19999;-90
2022/12/05 04:55:14;;;;;;;;;;;9.90;93.90;;;;;;5114637;28;19940;-90
2022/12/05 04:57:47;;;;;;;;;;;10.10;93.80;;;;;;5114854;28;19962;-90
2022/12/05 05:00:12;;;;;;;;;;;10.20;93.40;;;;;;5114590;28;19938;-90
2022/12/05 05:02:50;;;;;;;;;;;10.20;93.10;;;;;;5114542;28;20365;-90
2022/12/05 05:05:17;;;;;;;;;;;10.20;93.00;;;;;;5114515;28;19940;-89
2022/12/05 05:07:47;;;;;;;;;;;10.20;93.00;;;;;;5110716;28;20399;-90
2022/12/05 05:10:15;;;;;;;;;;;10.10;93.10;;;;;;5103193;28;19973;-89
2022/12/05 05:12:41;;;;;;;;;;;10.10;92.90;;;;;;5102726;28;20468;-89
2022/12/05 05:15:07;;;;;;;;;;;9.90;93.10;;;;;;5104087;28;20043;-89
2022/12/05 05:17:32;;;;;;;;;;;9.60;93.60;;;;;;5103050;28;19972;-90
2022/12/05 05:20:22;;;;;;;;;;;9.40;94.40;;;;;;5110832;28;19942;-89
2022/12/05 05:22:43;;;;;;;;;;;9.30;94.90;;;;;;5108649;28;19938;-88
2022/12/05 05:25:09;;;;;;;;;;;9.20;95.30;;;;;;5093510;28;20328;-89
2022/12/05 05:27:34;;;;;;;;;;;9.20;95.60;;;;;;5093688;28;19938;-89
2022/12/05 05:30:00;;;;;;;;;;;9.20;95.70;;;;;;5093488;28;19940;-89
2022/12/05 05:32:25;;;;;;;;;;;9.30;95.80;;;;;;5105001;28;19949;-89
2022/12/05 05:34:51;;;;;;;;;;;9.40;95.90;;;;;;5113984;28;19947;-88
2022/12/05 05:37:16;;;;;;;;;;;9.50;95.60;;;;;;5095289;28;19972;-89
2022/12/05 05:39:42;;;;;;;;;;;9.60;95.20;;;;;;5093477;28;19951;-90
2022/12/05 05:42:07;;;;;;;;;;;9.80;94.90;;;;;;5094012;28;19940;-90
2022/12/05 05:44:33;;;;;;;;;;;9.80;94.70;;;;;;5075368;28;20386;-90
2022/12/05 05:46:58;;;;;;;;;;;9.80;94.50;;;;;;5093399;28;20305;-89
2022/12/05 05:49:24;;;;;;;;;;;9.90;94.20;;;;;;5093439;28;19937;-89
2022/12/05 05:51:49;;;;;;;;;;;9.90;94.20;;;;;;5093302;28;19941;-89
2022/12/05 05:54:15;;;;;;;;;;;9.80;94.30;;;;;;5093284;28;19932;-89
2022/12/05 05:56:40;;;;;;;;;;;9.80;94.30;;;;;;5113878;28;19982;-89
2022/12/05 05:59:06;;;;;;;;;;;9.70;94.30;;;;;;5113490;28;20432;-90
2022/12/05 06:01:31;;;;;;;;;;;9.70;94.50;;;;;;5113455;28;19945;-89
2022/12/05 06:03:57;;;;;;;;;;;9.70;94.70;;;;;;5102414;28;19956;-90
2022/12/05 06:06:23;;;;;;;;;;;9.70;94.80;;;;;;5093153;28;19942;-89
2022/12/05 06:08:48;;;;;;;;;;;9.80;95.00;;;;;;5106994;28;19949;-89
2022/12/05 06:11:19;;;;;;;;;;;9.90;94.80;;;;;;5112078;28;19951;-89
2022/12/05 06:13:45;;;;;;;;;;;9.90;94.70;;;;;;5105784;28;19949;-90
2022/12/05 06:16:11;;;;;;;;;;;9.90;94.50;;;;;;5093114;28;19941;-90
2022/12/05 06:18:37;;;;;;;;;;;9.90;94.40;;;;;;5101516;28;19960;-89
2022/12/05 06:21:04;;;;;;;;;;;9.90;94.30;;;;;;5112627;28;19992;-89
2022/12/05 06:23:30;;;;;;;;;;;9.90;94.20;;;;;;5112530;28;19976;-89
2022/12/05 06:25:55;;;;;;;;;;;9.90;94.30;;;;;;5093632;28;19944;-89
2022/12/05 06:28:22;;;;;;;;;;;9.80;94.40;;;;;;5111156;28;19949;-89
2022/12/05 06:30:47;;;;;;;;;;;9.70;94.50;;;;;;5106949;28;20030;-89
2022/12/05 06:33:13;;;;;;;;;;;9.80;94.70;;;;;;5107740;28;20032;-90
2022/12/05 06:35:39;;;;;;;;;;;9.80;94.70;;;;;;5109722;28;20004;-89
2022/12/05 06:38:05;;;;;;;;;;;10.00;94.70;;;;;;5112303;28;20056;-89
2022/12/05 06:40:31;;;;;;;;;;;10.20;94.10;;;;;;5113172;28;19936;-89
2022/12/05 06:42:57;;;;;;;;;;;9.90;94.10;;;;;;5110670;28;19949;-89
2022/12/05 06:45:22;;;;;;;;;;;9.90;94.20;;;;;;5110843;28;20003;-89
2022/12/05 06:47:49;;;;;;;;;;;10.00;93.90;;;;;;5112337;28;20291;-89
2022/12/05 06:50:15;;;;;;;;;;;10.10;93.40;;;;;;5093572;28;20417;-89
2022/12/05 06:52:40;;;;;;;;;;;10.10;93.20;;;;;;5113098;28;19956;-90
2022/12/05 06:55:06;;;;;;;;;;;10.10;93.30;;;;;;5113855;28;19950;-89
2022/12/05 06:57:31;;;;;;;;;;;10.00;93.20;;;;;;5113928;27;20060;-89
2022/12/05 07:01:37;;;;;;;;;;;10.10;93.50;;;;;;5113148;28;19948;-89
2022/12/05 07:02:45;;;;;;;;;;;10.20;93.30;;;;;;5109328;28;21125;-89
2022/12/05 07:05:11;;;;;;;;;;;10.40;93.20;;;;;;5112150;28;19941;-90
2022/12/05 07:07:37;;;;;;;;;;;10.40;93.00;;;;;;5114182;28;20279;-90
2022/12/05 07:10:03;;;;;;;;;;;10.40;92.80;;;;;;5114862;28;19951;-89
2022/12/05 07:12:31;;;;;;;;;;;10.40;92.80;;;;;;5114287;28;19978;-89
2022/12/05 07:14:56;;;;;;;;;;;10.30;92.80;;;;;;5110512;28;19955;-89
2022/12/05 07:17:22;;;;;;;;;;;10.40;91.90;;;;;;5114910;28;19967;-89
2022/12/05 07:19:51;;;;;;;;;;;10.20;92.00;;;;;;5109692;28;19946;-89
2022/12/05 07:22:17;;;;;;;;;;;10.10;92.00;;;;;;5109175;28;19966;-90
2022/12/05 07:24:43;;;;;;;;;;;10.00;92.40;;;;;;5119734;22;20075;-89
2022/12/05 07:27:08;;;;;;;;;;;9.90;92.90;;;;;;5114440;28;19956;-89
2022/12/05 07:29:34;;;;;;;;;;;9.80;93.10;;;;;;5112638;28;19940;-89
2022/12/05 07:31:59;;;;;;;;;;;9.90;93.40;;;;;;5105593;28;20350;-88
2022/12/05 07:34:25;;;;;;;;;;;10.10;93.50;;;;;;5099102;28;19995;-89
2022/12/05 07:36:50;;;;;;;;;;;10.30;93.30;;;;;;5114048;28;19998;-89
2022/12/05 07:39:16;;;;;;;;;;;10.10;93.20;;;;;;5114648;28;19964;-88
2022/12/05 07:41:41;;;;;;;;;;;10.10;93.40;;;;;;5114848;28;19946;-87
2022/12/05 07:44:09;;;;;;;;;;;10.10;93.50;;;;;;5115256;28;20031;-87
2022/12/05 07:46:34;;;;;;;;;;;10.20;93.30;;;;;;5113786;28;20047;-86
2022/12/05 07:49:00;;;;;;;;;;;10.10;93.30;;;;;;5109599;28;20394;-88
2022/12/05 07:51:26;;;;;;;;;;;10.00;93.40;;;;;;5113305;28;20440;-88
2022/12/05 07:53:51;;;;;;;;;;;10.10;93.50;;;;;;5092970;28;19971;-88
2022/12/05 07:56:17;;;;;;;;;;;10.20;93.30;;;;;;5086345;28;19999;-88
2022/12/05 07:58:44;;;;;;;;;;;10.20;93.20;;;;;;5092743;28;19956;-86
2022/12/05 08:01:11;;;;;;;;;;;10.30;93.20;;;;;;5077280;28;20047;-86
2022/12/05 08:03:37;;;;;;;;;;;10.40;93.20;;;;;;5069194;28;19945;-86
2022/12/05 08:06:03;;;;;;;;;;;10.60;93.00;;;;;;5089645;28;20047;-88
2022/12/05 08:08:29;;;;;;;;;;;10.70;92.70;;;;;;5091987;28;19949;-87
2022/12/05 08:10:54;;;;;;;;;;;10.70;92.70;;;;;;5092959;28;19997;-87
2022/12/05 08:13:20;;;;;;;;;;;10.70;92.70;;;;;;5088039;28;19942;-87
2022/12/05 08:15:45;;;;;;;;;;;10.70;92.70;;;;;;5084358;28;20031;-89
2022/12/05 08:18:11;;;;;;;;;;;10.80;92.70;;;;;;5094902;28;20027;-88
2022/12/05 08:20:36;;;;;;;;;;;10.70;92.40;;;;;;5093305;28;20045;-88
2022/12/05 08:23:02;;;;;;;;;;;10.70;92.60;;;;;;5083309;28;19968;-89
2022/12/05 08:25:28;;;;;;;;;;;10.80;92.40;;;;;;5065298;28;19987;-89
2022/12/05 08:27:53;;;;;;;;;;;10.80;91.90;;;;;;5073100;28;20380;-89
2022/12/05 08:30:19;;;;;;;;;;;10.90;91.60;;;;;;5069774;28;20403;-89
2022/12/05 08:32:44;;;;;;;;;;;10.90;91.70;;;;;;5066426;28;19949;-89
2022/12/05 08:35:10;;;;;;;;;;;10.90;91.90;;;;;;5070151;28;19950;-89
2022/12/05 08:37:35;;;;;;;;;;;10.80;92.10;;;;;;5063693;28;20015;-89
2022/12/05 08:40:01;;;;;;;;;;;10.90;92.40;;;;;;5066660;28;19947;-89
2022/12/05 08:42:26;;;;;;;;;;;10.90;92.70;;;;;;5072236;28;20045;-89
2022/12/05 08:44:52;;;;;;;;;;;10.90;92.70;;;;;;5059679;28;19952;-89
2022/12/05 08:47:17;;;;;;;;;;;11.00;92.80;;;;;;5069638;28;19987;-89
2022/12/05 08:49:43;;;;;;;;;;;11.30;92.80;;;;;;5069262;28;20033;-89
2022/12/05 08:52:09;;;;;;;;;;;11.60;92.20;;;;;;5070643;28;19957;-89
2022/12/05 09:19:39;;;;;;;;;;;12.60;85.30;;;;;;5111370;27;19947;-88
2022/12/05 09:22:04;;;;;;;;;;;12.60;85.10;;;;;;5087874;28;19947;-89
2022/12/05 09:24:30;;;;;;;;;;;12.50;84.80;;;;;;5089021;28;20467;-88
2022/12/05 09:26:55;;;;;;;;;;;12.50;85.30;;;;;;5082547;28;19970;-88
2022/12/05 09:29:21;;;;;;;;;;;12.60;85.90;;;;;;5078794;28;19940;-88
2022/12/05 09:36:48;;;;;;;;;;;12.80;85.90;;;;;;5088822;27;19951;-88
2022/12/05 09:39:14;;;;;;;;;;;13.00;85.20;;;;;;5088279;28;19939;-88
2022/12/05 09:44:26;;;;;;;;;;;12.90;84.50;;;;;;5081363;28;19948;-88
2022/12/05 09:47:15;;;;;;;;;;;12.90;84.60;;;;;;5093400;28;19952;-88
2022/12/05 09:49:45;;;;;;;;;;;12.90;84.10;;;;;;5080579;28;19943;-88
2022/12/05 09:52:15;;;;;;;;;;;13.00;83.80;;;;;;5079521;28;19966;-88
2022/12/05 09:54:41;;;;;;;;;;;13.10;83.30;;;;;;5077094;28;19960;-88
2022/12/05 09:57:08;;;;;;;;;;;13.10;83.10;;;;;;5074353;28;19965;-88
2022/12/05 09:59:34;;;;;;;;;;;13.10;83.30;;;;;;5074925;28;19951;-88
2022/12/05 10:02:20;;;;;;;;;;;13.00;83.80;;;;;;5073688;28;19990;-88
2022/12/05 10:04:49;;;;;;;;;;;12.90;84.20;;;;;;5070653;28;19955;-88
2022/12/05 10:07:30;;;;;;;;;;;12.90;84.50;;;;;;5074438;28;20428;-89
2022/12/05 10:10:14;;;;;;;;;;;13.00;84.20;;;;;;5080650;28;19961;-88
2022/12/05 10:12:58;;;;;;;;;;;13.10;84.40;;;;;;5083786;28;20017;-88
2022/12/05 10:15:32;;;;;;;;;;;13.20;84.30;;;;;;5075298;28;19974;-88
2022/12/05 10:18:00;;;;;;;;;;;13.30;83.70;;;;;;5073804;28;19945;-88
2022/12/05 10:20:29;;;;;;;;;;;13.50;83.70;;;;;;5073460;28;19948;-88
2022/12/05 10:23:00;;;;;;;;;;;13.50;83.20;;;;;;5073190;28;19945;-89
2022/12/05 10:25:27;;;;;;;;;;;13.50;82.50;;;;;;5089298;28;21552;-88
2022/12/05 10:28:15;;;;;;;;;;;13.60;82.60;;;;;;5079922;28;19987;-87
2022/12/05 10:30:41;;;;;;;;;;;13.60;83.10;;;;;;5078984;28;19944;-87
2022/12/05 10:33:14;;;;;;;;;;;13.50;83.80;;;;;;5069280;28;19949;-87
2022/12/05 10:35:40;;;;;;;;;;;13.60;83.90;;;;;;5074523;28;19950;-87
2022/12/05 10:38:09;;;;;;;;;;;13.60;84.30;;;;;;5098009;28;20040;-88
2022/12/05 10:40:37;;;;;;;;;;;13.60;84.60;;;;;;5097080;28;19947;-88
2022/12/05 10:43:07;;;;;;;;;;;13.70;84.70;;;;;;5095913;28;19962;-88
2022/12/05 10:45:38;;;;;;;;;;;13.80;83.70;;;;;;5093189;28;19955;-88
2022/12/05 10:48:04;;;;;;;;;;;13.90;82.80;;;;;;5079246;28;20332;-88
2022/12/05 10:50:35;;;;;;;;;;;13.90;82.30;;;;;;5082135;28;20649;-88
2022/12/05 10:53:02;;;;;;;;;;;13.90;82.10;;;;;;5090986;28;20057;-88
2022/12/05 10:55:50;;;;;;;;;;;14.10;81.40;;;;;;5078860;28;19958;-88
2022/12/05 10:58:22;;;;;;;;;;;14.10;80.10;;;;;;5077842;28;19948;-87
2022/12/05 11:00:50;;;;;;;;;;;14.10;79.70;;;;;;5081909;28;19938;-88
2022/12/05 11:03:30;;;;;;;;;;;13.90;79.90;;;;;;5079515;28;19940;-88
2022/12/05 11:06:13;;;;;;;;;;;13.80;80.50;;;;;;5077533;28;19939;-88
2022/12/05 11:08:38;;;;;;;;;;;13.60;80.90;;;;;;5079761;28;19973;-89
2022/12/05 11:11:32;;;;;;;;;;;13.30;81.90;;;;;;5081486;28;20381;-89
2022/12/05 11:14:02;;;;;;;;;;;13.30;82.50;;;;;;5073346;28;19949;-90
2022/12/05 11:16:29;;;;;;;;;;;13.30;82.50;;;;;;5080862;28;19964;-89
2022/12/05 11:18:55;;;;;;;;;;;13.40;82.40;;;;;;5084521;28;20460;-89
2022/12/05 11:21:20;;;;;;;;;;;13.30;82.40;;;;;;5095506;28;20033;-89
2022/12/05 11:23:47;;;;;;;;;;;13.40;82.50;;;;;;5095524;28;19988;-89
2022/12/05 11:26:18;;;;;;;;;;;13.50;83.00;;;;;;5089032;28;20320;-89
2022/12/05 11:28:43;;;;;;;;;;;13.50;83.50;;;;;;5075181;28;20024;-89
2022/12/05 11:31:15;;;;;;;;;;;13.60;83.60;;;;;;5075187;28;20416;-88
2022/12/05 11:33:41;;;;;;;;;;;13.50;84.20;;;;;;5075059;28;19940;-88
2022/12/05 11:36:23;;;;;;;;;;;13.40;84.90;;;;;;5074573;28;19958;-88
2022/12/05 11:38:50;;;;;;;;;;;13.30;85.10;;;;;;5074933;28;19989;-89
2022/12/05 11:41:30;;;;;;;;;;;13.20;84.90;;;;;;5075153;28;19952;-89
2022/12/05 11:44:13;;;;;;;;;;;13.10;84.80;;;;;;5074875;28;19968;-89
2022/12/05 11:46:52;;;;;;;;;;;13.10;85.00;;;;;;5074704;28;19978;-89
2022/12/05 11:49:27;;;;;;;;;;;13.20;85.00;;;;;;5073504;28;19944;-89
2022/12/05 11:52:28;;;;;;;;;;;13.30;84.10;;;;;;5077088;28;19947;-89
2022/12/05 11:54:56;;;;;;;;;;;13.30;83.20;;;;;;5032248;28;19962;-89
2022/12/05 11:57:37;;;;;;;;;;;13.30;83.70;;;;;;5082917;28;20396;-89
2022/12/05 12:00:11;;;;;;;;;;;13.10;83.70;;;;;;5094009;28;19939;-89
2022/12/05 12:02:56;;;;;;;;;;;13.10;84.00;;;;;;5093452;28;20006;-89
2022/12/05 12:05:27;;;;;;;;;;;13.10;84.60;;;;;;5094841;28;19951;-89
2022/12/05 12:07:52;;;;;;;;;;;13.30;85.40;;;;;;5094555;28;20100;-89
2022/12/05 12:10:18;;;;;;;;;;;13.30;85.50;;;;;;5094572;28;20058;-89
2022/12/05 12:12:44;;;;;;;;;;;13.20;85.80;;;;;;5094490;28;20402;-90
2022/12/05 12:15:12;;;;;;;;;;;13.30;85.90;;;;;;5094316;28;19963;-89
2022/12/05 12:17:55;;;;;;;;;;;13.30;86.70;;;;;;5094424;28;20081;-90
2022/12/05 12:20:33;;;;;;;;;;;13.30;86.80;;;;;;5092872;28;19940;-90
2022/12/05 12:23:18;;;;;;;;;;;13.20;86.70;;;;;;5073777;28;19984;-90
2022/12/05 12:26:01;;;;;;;;;;;13.30;86.60;;;;;;5074892;28;20075;-89
2022/12/05 12:28:44;;;;;;;;;;;13.40;86.70;;;;;;5075989;28;20013;-89
2022/12/05 12:31:19;;;;;;;;;;;13.60;86.30;;;;;;5078204;28;19939;-89
2022/12/05 12:33:45;;;;;;;;;;;13.60;86.90;;;;;;5076539;28;19950;-89
2022/12/05 12:36:16;;;;;;;;;;;13.50;86.70;;;;;;5086489;28;19976;-89
2022/12/05 12:38:45;;;;;;;;;;;13.40;86.30;;;;;;5084301;28;19943;-89
2022/12/05 12:41:10;;;;;;;;;;;13.30;86.50;;;;;;5077352;28;19942;-89
2022/12/05 12:44:08;;;;;;;;;;;13.30;87.20;;;;;;5074298;28;19964;-89
2022/12/05 12:46:36;;;;;;;;;;;13.30;87.60;;;;;;5062454;28;19951;-89
2022/12/05 12:49:02;;;;;;;;;;;13.50;87.40;;;;;;5076407;28;20007;-89
2022/12/05 12:51:30;;;;;;;;;;;13.60;87.00;;;;;;5085163;28;19989;-89
2022/12/05 12:53:58;;;;;;;;;;;13.60;87.20;;;;;;5084868;28;20057;-89
2022/12/05 12:56:24;;;;;;;;;;;13.80;86.80;;;;;;5075524;28;20450;-89
2022/12/05 12:58:53;;;;;;;;;;;13.70;85.90;;;;;;5081673;28;19991;-90
2022/12/05 13:01:26;;;;;;;;;;;13.60;85.90;;;;;;5077736;28;19946;-89
2022/12/05 13:04:01;;;;;;;;;;;13.70;85.30;;;;;;5089614;28;19952;-89
2022/12/05 13:06:45;;;;;;;;;;;13.60;85.30;;;;;;5082839;28;20021;-89
2022/12/05 13:09:15;;;;;;;;;;;13.50;85.60;;;;;;5073917;28;19948;-89
2022/12/05 13:11:42;;;;;;;;;;;13.30;85.60;;;;;;5075440;28;19946;-89
2022/12/05 13:14:10;;;;;;;;;;;13.20;86.00;;;;;;5075432;28;19969;-89
2022/12/05 13:16:39;;;;;;;;;;;13.10;86.40;;;;;;5075180;28;20159;-89
2022/12/05 13:19:05;;;;;;;;;;;13.10;86.60;;;;;;5079334;28;19951;-89
2022/12/05 13:21:31;;;;;;;;;;;13.10;86.80;;;;;;5075254;28;20486;-89
2022/12/05 13:24:02;;;;;;;;;;;13.00;87.00;;;;;;5076314;28;20034;-89
2022/12/05 13:26:28;;;;;;;;;;;13.00;87.40;;;;;;5078362;28;19948;-89
2022/12/05 13:28:57;;;;;;;;;;;12.90;87.40;;;;;;5078409;28;19940;-90
2022/12/05 13:31:39;;;;;;;;;;;12.90;87.30;;;;;;5078185;28;20408;-90
2022/12/05 13:34:05;;;;;;;;;;;12.90;87.40;;;;;;5072717;28;19948;-89
2022/12/05 13:42:19;;;;;;;;;;;12.90;86.90;;;;;;5075075;28;19948;-89
2022/12/05 13:44:54;;;;;;;;;;;12.80;87.10;;;;;;5076478;28;19955;-90
2022/12/05 13:47:39;;;;;;;;;;;12.70;87.20;;;;;;5087841;28;20451;-89
2022/12/05 13:50:17;;;;;;;;;;;12.60;87.60;;;;;;5074385;28;19948;-90
2022/12/05 13:52:52;;;;;;;;;;;12.60;88.00;;;;;;5080168;28;20010;-89
2022/12/05 13:55:23;;;;;;;;;;;12.60;87.90;;;;;;5085593;28;19961;-90
2022/12/05 13:57:51;;;;;;;;;;;12.60;88.00;;;;;;5079656;28;19958;-89
2022/12/05 14:00:16;;;;;;;;;;;12.70;88.20;;;;;;5078704;28;19943;-90
2022/12/05 14:02:45;;;;;;;;;;;12.60;88.10;;;;;;5077007;28;20000;-90
2022/12/05 14:05:16;;;;;;;;;;;12.60;88.40;;;;;;5083672;28;19940;-89
2022/12/05 14:07:45;;;;;;;;;;;12.60;88.70;;;;;;5073805;28;19945;-89
2022/12/05 14:10:19;;;;;;;;;;;12.60;88.10;;;;;;5078716;28;19943;-89
2022/12/05 14:12:44;;;;;;;;;;;12.60;88.00;;;;;;5076526;28;19942;-89
2022/12/05 14:15:36;;;;;;;;;;;12.60;88.20;;;;;;5079145;28;19964;-89
2022/12/05 14:18:04;;;;;;;;;;;12.70;88.50;;;;;;5078275;28;19945;-90
2022/12/05 14:20:45;;;;;;;;;;;12.60;88.80;;;;;;5077023;28;20389;-89
2022/12/05 14:23:29;;;;;;;;;;;12.50;89.00;;;;;;5076916;28;19948;-89
2022/12/05 14:26:13;;;;;;;;;;;12.40;89.30;;;;;;5088861;28;19967;-90
2022/12/05 14:28:42;;;;;;;;;;;12.40;89.60;;;;;;5078980;28;20046;-90
2022/12/05 14:31:26;;;;;;;;;;;12.40;89.80;;;;;;5079331;28;19950;-90
2022/12/05 14:34:10;;;;;;;;;;;12.40;89.90;;;;;;5085243;28;20032;-90
2022/12/05 14:36:37;;;;;;;;;;;12.40;89.80;;;;;;5083143;28;20030;-90
2022/12/05 14:39:18;;;;;;;;;;;12.40;89.60;;;;;;5083617;28;19957;-89
2022/12/05 14:41:46;;;;;;;;;;;12.40;90.00;;;;;;5077788;28;19939;-89
2022/12/05 14:44:17;;;;;;;;;;;12.50;90.30;;;;;;5079705;28;19941;-89
2022/12/05 14:46:43;;;;;;;;;;;12.60;89.80;;;;;;5074750;28;19944;-89
2022/12/05 14:49:27;;;;;;;;;;;12.60;89.60;;;;;;5076360;28;20001;-89
2022/12/05 14:51:56;;;;;;;;;;;12.50;89.70;;;;;;5079941;28;20017;-89
2022/12/05 14:54:22;;;;;;;;;;;12.30;90.40;;;;;;5079966;28;19947;-90
2022/12/05 14:56:51;;;;;;;;;;;12.20;90.70;;;;;;5076032;28;19961;-89
2022/12/05 14:59:19;;;;;;;;;;;12.40;91.00;;;;;;5079843;28;20436;-89
2022/12/05 15:01:49;;;;;;;;;;;12.30;91.10;;;;;;5079211;28;19984;-90
2022/12/05 15:04:17;;;;;;;;;;;12.30;91.20;;;;;;5076885;28;20031;-89
2022/12/05 15:06:45;;;;;;;;;;;12.50;91.30;;;;;;5076730;28;19977;-90
2022/12/05 15:09:23;;;;;;;;;;;12.60;91.00;;;;;;5086743;28;19948;-89
2022/12/05 15:11:49;;;;;;;;;;;12.70;90.60;;;;;;5086423;28;20462;-90
2022/12/05 15:14:20;;;;;;;;;;;12.80;90.10;;;;;;5079329;28;20407;-89
2022/12/05 15:16:49;;;;;;;;;;;12.70;90.00;;;;;;5086889;28;19958;-89
2022/12/05 15:19:17;;;;;;;;;;;12.60;90.30;;;;;;5092667;28;19940;-89
2022/12/05 15:21:50;;;;;;;;;;;12.50;90.20;;;;;;5103858;28;19948;-89